sensor_id;sensor_type;location;lat;lon;timestamp;P1;durP1;ratioP1;P2;durP2;ratioP2
15340;SDS011;7770;52.158;5.372;2024-03-08T00:00:47;46.40;;;29.80;;
15340;SDS011;7770;52.158;5.372;2024-03-08T00:03:33;42.17;;;29.30;;
15340;SDS011;7770;52.158;5.372;2024-03-08T00:06:20;45.17;;;27.97;;
15340;SDS011;7770;52.158;5.372;2024-03-08T00:09:06;47.50;;;31.13;;
15340;SDS011;7770;52.158;5.372;2024-03-08T00:11:53;44.80;;;29.87;;
15340;SDS011;7770;52.158;5.372;2024-03-08T00:14:39;44.23;;;28.50;;
15340;SDS011;7770;52.158;5.372;2024-03-08T00:17:25;47.80;;;31.37;;
15340;SDS011;7770;52.158;5.372;2024-03-08T00:20:12;45.03;;;30.37;;
15340;SDS011;7770;52.158;5.372;2024-03-08T00:22:58;50.73;;;31.40;;
15340;SDS011;7770;52.158;5.372;2024-03-08T00:25:45;45.40;;;29.60;;
15340;SDS011;7770;52.158;5.372;2024-03-08T00:28:31;45.70;;;29.67;;
15340;SDS011;7770;52.158;5.372;2024-03-08T00:31:17;45.63;;;30.57;;
15340;SDS011;7770;52.158;5.372;2024-03-08T00:34:03;43.00;;;29.23;;
15340;SDS011;7770;52.158;5.372;2024-03-08T00:36:49;47.07;;;30.33;;
15340;SDS011;7770;52.158;5.372;2024-03-08T00:39:35;43.20;;;29.93;;
15340;SDS011;7770;52.158;5.372;2024-03-08T00:42:21;46.40;;;30.70;;
15340;SDS011;7770;52.158;5.372;2024-03-08T00:45:09;44.43;;;30.10;;
15340;SDS011;7770;52.158;5.372;2024-03-08T00:47:55;50.87;;;31.20;;
15340;SDS011;7770;52.158;5.372;2024-03-08T00:50:41;44.97;;;30.60;;
15340;SDS011;7770;52.158;5.372;2024-03-08T00:53:30;46.30;;;30.90;;
15340;SDS011;7770;52.158;5.372;2024-03-08T00:56:16;44.13;;;29.63;;
15340;SDS011;7770;52.158;5.372;2024-03-08T00:59:02;44.73;;;30.13;;
15340;SDS011;7770;52.158;5.372;2024-03-08T01:01:48;45.27;;;29.93;;
15340;SDS011;7770;52.158;5.372;2024-03-08T01:04:34;50.93;;;30.80;;
15340;SDS011;7770;52.158;5.372;2024-03-08T01:07:20;47.13;;;31.00;;
15340;SDS011;7770;52.158;5.372;2024-03-08T01:10:07;43.30;;;29.23;;
15340;SDS011;7770;52.158;5.372;2024-03-08T01:12:54;46.13;;;28.23;;
15340;SDS011;7770;52.158;5.372;2024-03-08T01:15:42;44.13;;;28.57;;
15340;SDS011;7770;52.158;5.372;2024-03-08T01:18:28;44.33;;;29.70;;
15340;SDS011;7770;52.158;5.372;2024-03-08T01:21:14;46.33;;;30.47;;
15340;SDS011;7770;52.158;5.372;2024-03-08T01:24:01;47.33;;;29.90;;
15340;SDS011;7770;52.158;5.372;2024-03-08T01:26:48;43.63;;;29.90;;
15340;SDS011;7770;52.158;5.372;2024-03-08T01:29:34;45.73;;;30.80;;
15340;SDS011;7770;52.158;5.372;2024-03-08T01:32:20;46.80;;;30.10;;
15340;SDS011;7770;52.158;5.372;2024-03-08T01:35:08;47.70;;;30.47;;
15340;SDS011;7770;52.158;5.372;2024-03-08T01:37:54;46.03;;;30.43;;
15340;SDS011;7770;52.158;5.372;2024-03-08T01:40:40;48.97;;;30.03;;
15340;SDS011;7770;52.158;5.372;2024-03-08T01:43:27;45.10;;;29.90;;
15340;SDS011;7770;52.158;5.372;2024-03-08T01:46:15;43.73;;;28.63;;
15340;SDS011;7770;52.158;5.372;2024-03-08T01:49:07;45.77;;;30.10;;
15340;SDS011;7770;52.158;5.372;2024-03-08T01:51:53;46.10;;;28.97;;
15340;SDS011;7770;52.158;5.372;2024-03-08T01:54:41;47.00;;;30.07;;
15340;SDS011;7770;52.158;5.372;2024-03-08T01:57:28;46.43;;;31.17;;
15340;SDS011;7770;52.158;5.372;2024-03-08T02:00:16;45.93;;;29.80;;
15340;SDS011;7770;52.158;5.372;2024-03-08T02:03:04;47.63;;;30.80;;
15340;SDS011;7770;52.158;5.372;2024-03-08T02:05:50;48.03;;;29.70;;
15340;SDS011;7770;52.158;5.372;2024-03-08T02:08:37;44.03;;;27.90;;
15340;SDS011;7770;52.158;5.372;2024-03-08T02:11:24;45.10;;;30.40;;
15340;SDS011;7770;52.158;5.372;2024-03-08T02:14:10;46.70;;;31.10;;
15340;SDS011;7770;52.158;5.372;2024-03-08T02:17:00;46.10;;;28.77;;
15340;SDS011;7770;52.158;5.372;2024-03-08T02:19:46;45.57;;;31.27;;
15340;SDS011;7770;52.158;5.372;2024-03-08T02:22:33;46.00;;;31.63;;
15340;SDS011;7770;52.158;5.372;2024-03-08T02:25:19;44.83;;;30.63;;
15340;SDS011;7770;52.158;5.372;2024-03-08T02:28:05;44.53;;;30.47;;
15340;SDS011;7770;52.158;5.372;2024-03-08T02:30:51;46.37;;;30.63;;
15340;SDS011;7770;52.158;5.372;2024-03-08T02:33:41;49.67;;;31.27;;
15340;SDS011;7770;52.158;5.372;2024-03-08T02:36:27;45.30;;;31.50;;
15340;SDS011;7770;52.158;5.372;2024-03-08T02:39:13;47.17;;;31.77;;
15340;SDS011;7770;52.158;5.372;2024-03-08T02:41:59;47.30;;;31.37;;
15340;SDS011;7770;52.158;5.372;2024-03-08T02:44:45;51.57;;;32.07;;
15340;SDS011;7770;52.158;5.372;2024-03-08T02:47:31;48.47;;;31.87;;
15340;SDS011;7770;52.158;5.372;2024-03-08T02:50:17;50.77;;;32.00;;
15340;SDS011;7770;52.158;5.372;2024-03-08T02:53:03;48.30;;;31.43;;
15340;SDS011;7770;52.158;5.372;2024-03-08T02:55:49;48.00;;;30.83;;
15340;SDS011;7770;52.158;5.372;2024-03-08T02:58:35;46.17;;;31.10;;
15340;SDS011;7770;52.158;5.372;2024-03-08T03:01:21;48.50;;;30.93;;
15340;SDS011;7770;52.158;5.372;2024-03-08T03:04:08;49.77;;;32.37;;
15340;SDS011;7770;52.158;5.372;2024-03-08T03:06:54;50.00;;;32.20;;
15340;SDS011;7770;52.158;5.372;2024-03-08T03:09:40;47.30;;;31.60;;
15340;SDS011;7770;52.158;5.372;2024-03-08T03:12:27;47.23;;;32.00;;
15340;SDS011;7770;52.158;5.372;2024-03-08T03:15:14;48.97;;;31.10;;
15340;SDS011;7770;52.158;5.372;2024-03-08T03:18:02;49.60;;;33.37;;
15340;SDS011;7770;52.158;5.372;2024-03-08T03:20:48;44.10;;;30.33;;
15340;SDS011;7770;52.158;5.372;2024-03-08T03:23:34;47.43;;;32.23;;
15340;SDS011;7770;52.158;5.372;2024-03-08T03:26:21;45.43;;;27.97;;
15340;SDS011;7770;52.158;5.372;2024-03-08T03:29:07;49.97;;;31.97;;
15340;SDS011;7770;52.158;5.372;2024-03-08T03:31:53;47.67;;;31.83;;
15340;SDS011;7770;52.158;5.372;2024-03-08T03:34:40;47.07;;;33.17;;
15340;SDS011;7770;52.158;5.372;2024-03-08T03:37:27;48.43;;;31.73;;
15340;SDS011;7770;52.158;5.372;2024-03-08T03:40:13;49.30;;;33.37;;
15340;SDS011;7770;52.158;5.372;2024-03-08T03:43:00;47.17;;;31.43;;
15340;SDS011;7770;52.158;5.372;2024-03-08T03:45:46;46.90;;;29.07;;
15340;SDS011;7770;52.158;5.372;2024-03-08T03:48:32;48.30;;;32.27;;
15340;SDS011;7770;52.158;5.372;2024-03-08T03:51:19;46.27;;;31.73;;
15340;SDS011;7770;52.158;5.372;2024-03-08T03:54:05;49.67;;;31.90;;
15340;SDS011;7770;52.158;5.372;2024-03-08T03:56:51;47.00;;;31.63;;
15340;SDS011;7770;52.158;5.372;2024-03-08T03:59:38;47.53;;;31.30;;
15340;SDS011;7770;52.158;5.372;2024-03-08T04:02:26;45.27;;;30.70;;
15340;SDS011;7770;52.158;5.372;2024-03-08T04:05:12;46.47;;;32.53;;
15340;SDS011;7770;52.158;5.372;2024-03-08T04:07:58;46.27;;;32.37;;
15340;SDS011;7770;52.158;5.372;2024-03-08T04:10:44;47.17;;;31.90;;
15340;SDS011;7770;52.158;5.372;2024-03-08T04:13:30;41.97;;;27.57;;
15340;SDS011;7770;52.158;5.372;2024-03-08T04:16:16;50.80;;;32.73;;
15340;SDS011;7770;52.158;5.372;2024-03-08T04:19:04;47.63;;;32.50;;
15340;SDS011;7770;52.158;5.372;2024-03-08T04:21:50;46.87;;;32.27;;
15340;SDS011;7770;52.158;5.372;2024-03-08T04:24:36;47.77;;;32.03;;
15340;SDS011;7770;52.158;5.372;2024-03-08T04:27:22;45.20;;;31.07;;
15340;SDS011;7770;52.158;5.372;2024-03-08T04:30:09;47.80;;;32.27;;
15340;SDS011;7770;52.158;5.372;2024-03-08T04:32:55;50.60;;;31.97;;
15340;SDS011;7770;52.158;5.372;2024-03-08T04:35:42;47.80;;;31.60;;
15340;SDS011;7770;52.158;5.372;2024-03-08T04:38:31;44.93;;;30.97;;
15340;SDS011;7770;52.158;5.372;2024-03-08T04:41:17;48.40;;;33.30;;
15340;SDS011;7770;52.158;5.372;2024-03-08T04:44:03;43.43;;;28.63;;
15340;SDS011;7770;52.158;5.372;2024-03-08T04:46:50;40.33;;;26.07;;
15340;SDS011;7770;52.158;5.372;2024-03-08T04:49:35;47.77;;;32.70;;
15340;SDS011;7770;52.158;5.372;2024-03-08T04:52:21;51.10;;;32.77;;
15340;SDS011;7770;52.158;5.372;2024-03-08T04:55:08;50.03;;;33.13;;
15340;SDS011;7770;52.158;5.372;2024-03-08T04:57:54;44.97;;;32.33;;
15340;SDS011;7770;52.158;5.372;2024-03-08T05:00:40;43.70;;;26.97;;
15340;SDS011;7770;52.158;5.372;2024-03-08T05:03:26;50.47;;;33.33;;
15340;SDS011;7770;52.158;5.372;2024-03-08T05:06:13;46.90;;;31.67;;
15340;SDS011;7770;52.158;5.372;2024-03-08T05:08:59;45.70;;;31.53;;
15340;SDS011;7770;52.158;5.372;2024-03-08T05:11:45;47.90;;;31.63;;
15340;SDS011;7770;52.158;5.372;2024-03-08T05:14:32;50.77;;;32.10;;
15340;SDS011;7770;52.158;5.372;2024-03-08T05:17:19;48.47;;;32.67;;
15340;SDS011;7770;52.158;5.372;2024-03-08T05:20:06;49.63;;;32.83;;
15340;SDS011;7770;52.158;5.372;2024-03-08T05:22:57;47.87;;;30.23;;
15340;SDS011;7770;52.158;5.372;2024-03-08T05:25:46;46.83;;;32.43;;
15340;SDS011;7770;52.158;5.372;2024-03-08T05:28:32;52.77;;;33.97;;
15340;SDS011;7770;52.158;5.372;2024-03-08T05:31:19;40.97;;;26.37;;
15340;SDS011;7770;52.158;5.372;2024-03-08T05:34:08;50.57;;;33.30;;
15340;SDS011;7770;52.158;5.372;2024-03-08T05:36:55;48.50;;;32.43;;
15340;SDS011;7770;52.158;5.372;2024-03-08T05:39:43;49.97;;;33.57;;
15340;SDS011;7770;52.158;5.372;2024-03-08T05:42:29;47.47;;;33.03;;
15340;SDS011;7770;52.158;5.372;2024-03-08T05:45:15;46.53;;;32.17;;
15340;SDS011;7770;52.158;5.372;2024-03-08T05:48:01;47.93;;;33.20;;
15340;SDS011;7770;52.158;5.372;2024-03-08T05:50:47;49.13;;;33.57;;
15340;SDS011;7770;52.158;5.372;2024-03-08T05:53:33;49.10;;;34.80;;
15340;SDS011;7770;52.158;5.372;2024-03-08T05:56:20;50.53;;;34.53;;
15340;SDS011;7770;52.158;5.372;2024-03-08T05:59:06;50.73;;;32.97;;
15340;SDS011;7770;52.158;5.372;2024-03-08T06:01:52;49.60;;;33.57;;
15340;SDS011;7770;52.158;5.372;2024-03-08T06:04:37;48.60;;;34.43;;
15340;SDS011;7770;52.158;5.372;2024-03-08T06:07:24;43.30;;;26.60;;
15340;SDS011;7770;52.158;5.372;2024-03-08T06:10:10;52.17;;;33.90;;
15340;SDS011;7770;52.158;5.372;2024-03-08T06:13:02;50.20;;;33.10;;
15340;SDS011;7770;52.158;5.372;2024-03-08T06:15:48;49.17;;;33.17;;
15340;SDS011;7770;52.158;5.372;2024-03-08T06:18:35;47.90;;;33.63;;
15340;SDS011;7770;52.158;5.372;2024-03-08T06:21:22;49.67;;;32.03;;
15340;SDS011;7770;52.158;5.372;2024-03-08T06:24:11;49.67;;;35.23;;
15340;SDS011;7770;52.158;5.372;2024-03-08T06:26:57;50.10;;;34.30;;
15340;SDS011;7770;52.158;5.372;2024-03-08T06:29:43;47.63;;;31.03;;
15340;SDS011;7770;52.158;5.372;2024-03-08T06:32:30;48.73;;;33.50;;
15340;SDS011;7770;52.158;5.372;2024-03-08T06:35:18;48.00;;;33.90;;
15340;SDS011;7770;52.158;5.372;2024-03-08T06:38:05;46.87;;;30.87;;
15340;SDS011;7770;52.158;5.372;2024-03-08T06:40:51;47.87;;;32.73;;
15340;SDS011;7770;52.158;5.372;2024-03-08T06:43:39;35.23;;;22.93;;
15340;SDS011;7770;52.158;5.372;2024-03-08T06:46:26;49.70;;;33.93;;
15340;SDS011;7770;52.158;5.372;2024-03-08T06:49:12;49.93;;;34.10;;
15340;SDS011;7770;52.158;5.372;2024-03-08T06:51:58;49.53;;;32.40;;
15340;SDS011;7770;52.158;5.372;2024-03-08T06:54:44;48.83;;;34.27;;
15340;SDS011;7770;52.158;5.372;2024-03-08T06:57:31;48.73;;;33.67;;
15340;SDS011;7770;52.158;5.372;2024-03-08T07:00:17;48.83;;;34.00;;
15340;SDS011;7770;52.158;5.372;2024-03-08T07:03:03;44.43;;;30.03;;
15340;SDS011;7770;52.158;5.372;2024-03-08T07:05:57;46.97;;;33.60;;
15340;SDS011;7770;52.158;5.372;2024-03-08T07:08:43;43.33;;;32.60;;
15340;SDS011;7770;52.158;5.372;2024-03-08T07:11:31;45.97;;;32.43;;
15340;SDS011;7770;52.158;5.372;2024-03-08T07:14:17;40.40;;;30.83;;
15340;SDS011;7770;52.158;5.372;2024-03-08T07:17:03;41.80;;;31.07;;
15340;SDS011;7770;52.158;5.372;2024-03-08T07:19:49;39.77;;;31.57;;
15340;SDS011;7770;52.158;5.372;2024-03-08T07:22:36;39.97;;;31.03;;
15340;SDS011;7770;52.158;5.372;2024-03-08T07:25:23;41.50;;;33.40;;
15340;SDS011;7770;52.158;5.372;2024-03-08T07:28:10;41.37;;;31.70;;
15340;SDS011;7770;52.158;5.372;2024-03-08T07:30:57;40.13;;;31.47;;
15340;SDS011;7770;52.158;5.372;2024-03-08T07:33:58;42.43;;;33.40;;
15340;SDS011;7770;52.158;5.372;2024-03-08T07:36:44;39.13;;;30.60;;
15340;SDS011;7770;52.158;5.372;2024-03-08T07:39:30;38.53;;;32.57;;
15340;SDS011;7770;52.158;5.372;2024-03-08T07:42:17;40.03;;;32.27;;
15340;SDS011;7770;52.158;5.372;2024-03-08T07:45:03;39.73;;;32.60;;
15340;SDS011;7770;52.158;5.372;2024-03-08T07:47:52;40.80;;;32.87;;
15340;SDS011;7770;52.158;5.372;2024-03-08T07:50:39;40.40;;;32.60;;
15340;SDS011;7770;52.158;5.372;2024-03-08T07:53:26;38.07;;;31.50;;
15340;SDS011;7770;52.158;5.372;2024-03-08T07:56:12;36.50;;;31.33;;
15340;SDS011;7770;52.158;5.372;2024-03-08T07:58:59;39.07;;;32.60;;
15340;SDS011;7770;52.158;5.372;2024-03-08T08:01:44;37.80;;;31.73;;
15340;SDS011;7770;52.158;5.372;2024-03-08T08:04:32;40.33;;;31.87;;
15340;SDS011;7770;52.158;5.372;2024-03-08T08:07:18;36.90;;;32.20;;
15340;SDS011;7770;52.158;5.372;2024-03-08T08:10:04;38.53;;;32.10;;
15340;SDS011;7770;52.158;5.372;2024-03-08T08:12:52;36.00;;;28.20;;
15340;SDS011;7770;52.158;5.372;2024-03-08T08:15:38;35.03;;;31.23;;
15340;SDS011;7770;52.158;5.372;2024-03-08T08:18:24;35.90;;;32.00;;
15340;SDS011;7770;52.158;5.372;2024-03-08T08:21:10;35.20;;;31.40;;
15340;SDS011;7770;52.158;5.372;2024-03-08T08:23:56;36.87;;;31.63;;
15340;SDS011;7770;52.158;5.372;2024-03-08T08:26:42;32.60;;;28.37;;
15340;SDS011;7770;52.158;5.372;2024-03-08T08:29:29;35.83;;;32.10;;
15340;SDS011;7770;52.158;5.372;2024-03-08T08:32:15;35.80;;;32.10;;
15340;SDS011;7770;52.158;5.372;2024-03-08T08:35:02;35.17;;;31.27;;
15340;SDS011;7770;52.158;5.372;2024-03-08T08:37:49;35.27;;;31.57;;
15340;SDS011;7770;52.158;5.372;2024-03-08T08:40:35;30.30;;;26.57;;
15340;SDS011;7770;52.158;5.372;2024-03-08T08:43:22;34.13;;;30.63;;
15340;SDS011;7770;52.158;5.372;2024-03-08T08:46:10;35.53;;;31.90;;
15340;SDS011;7770;52.158;5.372;2024-03-08T08:48:58;34.43;;;30.63;;
15340;SDS011;7770;52.158;5.372;2024-03-08T08:51:48;35.37;;;31.60;;
15340;SDS011;7770;52.158;5.372;2024-03-08T08:54:37;35.13;;;31.47;;
15340;SDS011;7770;52.158;5.372;2024-03-08T08:57:23;34.70;;;31.17;;
15340;SDS011;7770;52.158;5.372;2024-03-08T09:00:09;35.03;;;31.43;;
15340;SDS011;7770;52.158;5.372;2024-03-08T09:03:00;35.37;;;31.77;;
15340;SDS011;7770;52.158;5.372;2024-03-08T09:05:47;34.43;;;30.93;;
15340;SDS011;7770;52.158;5.372;2024-03-08T09:08:33;34.97;;;31.20;;
15340;SDS011;7770;52.158;5.372;2024-03-08T09:11:19;35.50;;;31.83;;
15340;SDS011;7770;52.158;5.372;2024-03-08T09:14:05;34.83;;;31.47;;
15340;SDS011;7770;52.158;5.372;2024-03-08T09:16:51;35.33;;;31.90;;
15340;SDS011;7770;52.158;5.372;2024-03-08T09:19:37;35.07;;;31.57;;
15340;SDS011;7770;52.158;5.372;2024-03-08T09:22:25;36.10;;;32.40;;
15340;SDS011;7770;52.158;5.372;2024-03-08T09:25:11;34.53;;;31.03;;
15340;SDS011;7770;52.158;5.372;2024-03-08T09:27:57;35.10;;;31.43;;
15340;SDS011;7770;52.158;5.372;2024-03-08T09:30:43;35.03;;;31.53;;
15340;SDS011;7770;52.158;5.372;2024-03-08T09:33:29;35.27;;;31.77;;
15340;SDS011;7770;52.158;5.372;2024-03-08T09:36:16;33.43;;;29.83;;
15340;SDS011;7770;52.158;5.372;2024-03-08T09:39:02;33.70;;;30.40;;
15340;SDS011;7770;52.158;5.372;2024-03-08T09:41:48;34.67;;;31.13;;
15340;SDS011;7770;52.158;5.372;2024-03-08T09:44:34;36.10;;;32.23;;
15340;SDS011;7770;52.158;5.372;2024-03-08T09:47:21;33.73;;;30.53;;
15340;SDS011;7770;52.158;5.372;2024-03-08T09:50:10;30.53;;;26.93;;
15340;SDS011;7770;52.158;5.372;2024-03-08T09:53:00;35.07;;;31.47;;
15340;SDS011;7770;52.158;5.372;2024-03-08T09:55:46;34.17;;;30.70;;
15340;SDS011;7770;52.158;5.372;2024-03-08T09:58:34;34.73;;;31.23;;
15340;SDS011;7770;52.158;5.372;2024-03-08T10:01:20;32.10;;;28.60;;
15340;SDS011;7770;52.158;5.372;2024-03-08T10:04:07;33.63;;;30.23;;
15340;SDS011;7770;52.158;5.372;2024-03-08T10:06:55;33.23;;;29.93;;
15340;SDS011;7770;52.158;5.372;2024-03-08T10:09:42;33.50;;;30.10;;
15340;SDS011;7770;52.158;5.372;2024-03-08T10:12:34;33.23;;;29.83;;
15340;SDS011;7770;52.158;5.372;2024-03-08T10:15:21;33.17;;;29.80;;
15340;SDS011;7770;52.158;5.372;2024-03-08T10:18:07;33.43;;;30.03;;
15340;SDS011;7770;52.158;5.372;2024-03-08T10:21:06;32.97;;;29.87;;
15340;SDS011;7770;52.158;5.372;2024-03-08T10:23:55;32.27;;;28.97;;
15340;SDS011;7770;52.158;5.372;2024-03-08T10:26:41;30.60;;;27.60;;
15340;SDS011;7770;52.158;5.372;2024-03-08T10:29:32;33.20;;;30.03;;
15340;SDS011;7770;52.158;5.372;2024-03-08T10:32:18;31.97;;;28.77;;
15340;SDS011;7770;52.158;5.372;2024-03-08T10:35:04;31.13;;;27.97;;
15340;SDS011;7770;52.158;5.372;2024-03-08T10:37:53;27.40;;;24.57;;
15340;SDS011;7770;52.158;5.372;2024-03-08T10:40:46;28.60;;;25.57;;
15340;SDS011;7770;52.158;5.372;2024-03-08T10:44:23;31.10;;;27.87;;
15340;SDS011;7770;52.158;5.372;2024-03-08T10:47:18;30.70;;;27.70;;
15340;SDS011;7770;52.158;5.372;2024-03-08T10:50:16;29.87;;;26.67;;
15340;SDS011;7770;52.158;5.372;2024-03-08T10:53:08;29.17;;;26.07;;
15340;SDS011;7770;52.158;5.372;2024-03-08T10:55:57;30.73;;;26.80;;
15340;SDS011;7770;52.158;5.372;2024-03-08T10:58:43;29.57;;;26.67;;
15340;SDS011;7770;52.158;5.372;2024-03-08T11:01:32;30.10;;;27.10;;
15340;SDS011;7770;52.158;5.372;2024-03-08T11:04:18;28.67;;;23.67;;
15340;SDS011;7770;52.158;5.372;2024-03-08T11:07:08;29.57;;;26.60;;
15340;SDS011;7770;52.158;5.372;2024-03-08T11:10:02;29.80;;;26.80;;
15340;SDS011;7770;52.158;5.372;2024-03-08T11:12:55;28.80;;;24.33;;
15340;SDS011;7770;52.158;5.372;2024-03-08T11:15:43;30.03;;;26.97;;
15340;SDS011;7770;52.158;5.372;2024-03-08T11:18:29;29.37;;;26.23;;
15340;SDS011;7770;52.158;5.372;2024-03-08T11:21:19;30.97;;;27.77;;
15340;SDS011;7770;52.158;5.372;2024-03-08T11:24:12;28.57;;;25.47;;
15340;SDS011;7770;52.158;5.372;2024-03-08T11:26:59;29.50;;;26.50;;
15340;SDS011;7770;52.158;5.372;2024-03-08T11:29:52;29.43;;;26.43;;
15340;SDS011;7770;52.158;5.372;2024-03-08T11:32:54;27.13;;;24.33;;
15340;SDS011;7770;52.158;5.372;2024-03-08T11:35:48;27.43;;;24.50;;
15340;SDS011;7770;52.158;5.372;2024-03-08T11:38:36;28.63;;;25.37;;
15340;SDS011;7770;52.158;5.372;2024-03-08T11:41:26;28.57;;;24.63;;
15340;SDS011;7770;52.158;5.372;2024-03-08T11:44:12;29.50;;;26.50;;
15340;SDS011;7770;52.158;5.372;2024-03-08T11:47:01;29.17;;;26.10;;
15340;SDS011;7770;52.158;5.372;2024-03-08T11:49:47;27.43;;;24.53;;
15340;SDS011;7770;52.158;5.372;2024-03-08T11:52:33;27.20;;;24.50;;
15340;SDS011;7770;52.158;5.372;2024-03-08T11:55:19;26.27;;;23.57;;
15340;SDS011;7770;52.158;5.372;2024-03-08T11:58:07;24.10;;;21.60;;
15340;SDS011;7770;52.158;5.372;2024-03-08T12:01:01;25.97;;;23.17;;
15340;SDS011;7770;52.158;5.372;2024-03-08T12:03:59;26.13;;;23.57;;
15340;SDS011;7770;52.158;5.372;2024-03-08T12:06:45;28.53;;;25.43;;
15340;SDS011;7770;52.158;5.372;2024-03-08T12:09:33;26.93;;;24.17;;
15340;SDS011;7770;52.158;5.372;2024-03-08T12:12:21;26.87;;;24.20;;
15340;SDS011;7770;52.158;5.372;2024-03-08T12:15:09;27.47;;;24.37;;
15340;SDS011;7770;52.158;5.372;2024-03-08T12:17:56;26.63;;;23.80;;
15340;SDS011;7770;52.158;5.372;2024-03-08T12:20:44;25.10;;;21.70;;
15340;SDS011;7770;52.158;5.372;2024-03-08T12:23:35;24.70;;;22.10;;
15340;SDS011;7770;52.158;5.372;2024-03-08T12:26:25;24.10;;;21.60;;
15340;SDS011;7770;52.158;5.372;2024-03-08T12:32:08;23.90;;;21.40;;
15340;SDS011;7770;52.158;5.372;2024-03-08T12:34:56;23.43;;;20.33;;
15340;SDS011;7770;52.158;5.372;2024-03-08T12:37:42;27.03;;;21.87;;
15340;SDS011;7770;52.158;5.372;2024-03-08T12:40:30;21.70;;;19.50;;
15340;SDS011;7770;52.158;5.372;2024-03-08T12:43:18;21.37;;;17.60;;
15340;SDS011;7770;52.158;5.372;2024-03-08T12:46:04;22.73;;;17.67;;
15340;SDS011;7770;52.158;5.372;2024-03-08T12:48:51;23.87;;;21.17;;
15340;SDS011;7770;52.158;5.372;2024-03-08T12:51:38;23.73;;;21.03;;
15340;SDS011;7770;52.158;5.372;2024-03-08T12:54:24;22.07;;;19.70;;
15340;SDS011;7770;52.158;5.372;2024-03-08T12:57:10;24.87;;;22.23;;
15340;SDS011;7770;52.158;5.372;2024-03-08T12:59:56;25.20;;;22.50;;
15340;SDS011;7770;52.158;5.372;2024-03-08T13:02:42;25.10;;;21.30;;
15340;SDS011;7770;52.158;5.372;2024-03-08T13:05:28;27.90;;;21.60;;
15340;SDS011;7770;52.158;5.372;2024-03-08T13:08:15;25.97;;;22.43;;
15340;SDS011;7770;52.158;5.372;2024-03-08T13:11:03;26.00;;;20.40;;
15340;SDS011;7770;52.158;5.372;2024-03-08T13:13:49;24.87;;;22.20;;
15340;SDS011;7770;52.158;5.372;2024-03-08T13:16:36;26.87;;;20.20;;
15340;SDS011;7770;52.158;5.372;2024-03-08T13:19:22;26.30;;;22.10;;
15340;SDS011;7770;52.158;5.372;2024-03-08T13:22:08;27.53;;;24.10;;
15340;SDS011;7770;52.158;5.372;2024-03-08T13:25:02;27.20;;;23.30;;
15340;SDS011;7770;52.158;5.372;2024-03-08T13:27:48;27.77;;;24.27;;
15340;SDS011;7770;52.158;5.372;2024-03-08T13:30:34;26.33;;;23.43;;
15340;SDS011;7770;52.158;5.372;2024-03-08T13:33:20;26.97;;;24.07;;
15340;SDS011;7770;52.158;5.372;2024-03-08T13:36:07;27.63;;;23.57;;
15340;SDS011;7770;52.158;5.372;2024-03-08T13:39:01;26.03;;;22.47;;
15340;SDS011;7770;52.158;5.372;2024-03-08T13:41:55;22.73;;;19.63;;
15340;SDS011;7770;52.158;5.372;2024-03-08T13:44:45;27.00;;;20.80;;
15340;SDS011;7770;52.158;5.372;2024-03-08T13:47:31;25.73;;;21.33;;
15340;SDS011;7770;52.158;5.372;2024-03-08T13:50:19;26.03;;;21.67;;
15340;SDS011;7770;52.158;5.372;2024-03-08T13:53:08;22.03;;;17.43;;
15340;SDS011;7770;52.158;5.372;2024-03-08T13:55:55;26.60;;;20.03;;
15340;SDS011;7770;52.158;5.372;2024-03-08T13:58:42;24.93;;;21.73;;
15340;SDS011;7770;52.158;5.372;2024-03-08T14:01:29;25.80;;;22.47;;
15340;SDS011;7770;52.158;5.372;2024-03-08T14:04:15;26.13;;;22.50;;
15340;SDS011;7770;52.158;5.372;2024-03-08T14:07:04;28.70;;;22.93;;
15340;SDS011;7770;52.158;5.372;2024-03-08T14:09:53;26.60;;;23.67;;
15340;SDS011;7770;52.158;5.372;2024-03-08T14:12:39;26.17;;;23.30;;
15340;SDS011;7770;52.158;5.372;2024-03-08T14:15:25;27.17;;;22.13;;
15340;SDS011;7770;52.158;5.372;2024-03-08T14:18:11;23.23;;;17.73;;
15340;SDS011;7770;52.158;5.372;2024-03-08T14:21:00;27.77;;;23.13;;
15340;SDS011;7770;52.158;5.372;2024-03-08T14:23:46;27.77;;;23.93;;
15340;SDS011;7770;52.158;5.372;2024-03-08T14:26:34;30.90;;;24.73;;
15340;SDS011;7770;52.158;5.372;2024-03-08T14:29:21;28.43;;;22.53;;
15340;SDS011;7770;52.158;5.372;2024-03-08T14:32:08;24.30;;;19.70;;
15340;SDS011;7770;52.158;5.372;2024-03-08T14:34:55;26.23;;;22.40;;
15340;SDS011;7770;52.158;5.372;2024-03-08T14:37:41;26.57;;;23.00;;
15340;SDS011;7770;52.158;5.372;2024-03-08T14:40:28;27.47;;;20.80;;
15340;SDS011;7770;52.158;5.372;2024-03-08T14:43:15;27.33;;;24.40;;
15340;SDS011;7770;52.158;5.372;2024-03-08T14:46:02;30.43;;;24.30;;
15340;SDS011;7770;52.158;5.372;2024-03-08T14:48:52;26.63;;;23.50;;
15340;SDS011;7770;52.158;5.372;2024-03-08T14:51:38;24.70;;;19.90;;
15340;SDS011;7770;52.158;5.372;2024-03-08T14:54:24;26.27;;;23.27;;
15340;SDS011;7770;52.158;5.372;2024-03-08T14:57:11;29.57;;;24.10;;
15340;SDS011;7770;52.158;5.372;2024-03-08T14:59:57;23.43;;;20.60;;
15340;SDS011;7770;52.158;5.372;2024-03-08T15:02:48;25.93;;;23.13;;
15340;SDS011;7770;52.158;5.372;2024-03-08T15:05:34;25.80;;;22.73;;
15340;SDS011;7770;52.158;5.372;2024-03-08T15:08:23;24.90;;;21.23;;
15340;SDS011;7770;52.158;5.372;2024-03-08T15:11:10;26.37;;;23.43;;
15340;SDS011;7770;52.158;5.372;2024-03-08T15:13:56;27.00;;;23.67;;
15340;SDS011;7770;52.158;5.372;2024-03-08T15:16:43;25.97;;;21.60;;
15340;SDS011;7770;52.158;5.372;2024-03-08T15:19:29;26.93;;;22.60;;
15340;SDS011;7770;52.158;5.372;2024-03-08T15:22:15;27.33;;;24.43;;
15340;SDS011;7770;52.158;5.372;2024-03-08T15:25:03;26.33;;;21.67;;
15340;SDS011;7770;52.158;5.372;2024-03-08T15:27:49;25.97;;;22.13;;
15340;SDS011;7770;52.158;5.372;2024-03-08T15:30:35;28.80;;;22.97;;
15340;SDS011;7770;52.158;5.372;2024-03-08T15:33:21;25.37;;;21.60;;
15340;SDS011;7770;52.158;5.372;2024-03-08T15:36:12;26.90;;;23.53;;
15340;SDS011;7770;52.158;5.372;2024-03-08T15:39:00;23.60;;;18.53;;
15340;SDS011;7770;52.158;5.372;2024-03-08T15:41:48;28.80;;;24.07;;
15340;SDS011;7770;52.158;5.372;2024-03-08T15:44:34;26.43;;;22.47;;
15340;SDS011;7770;52.158;5.372;2024-03-08T15:47:24;25.37;;;22.67;;
15340;SDS011;7770;52.158;5.372;2024-03-08T15:50:36;27.73;;;19.33;;
15340;SDS011;7770;52.158;5.372;2024-03-08T15:53:22;25.20;;;19.50;;
15340;SDS011;7770;52.158;5.372;2024-03-08T15:56:09;27.57;;;22.97;;
15340;SDS011;7770;52.158;5.372;2024-03-08T15:58:55;25.50;;;22.60;;
15340;SDS011;7770;52.158;5.372;2024-03-08T16:01:41;27.43;;;23.93;;
15340;SDS011;7770;52.158;5.372;2024-03-08T16:04:27;27.13;;;23.80;;
15340;SDS011;7770;52.158;5.372;2024-03-08T16:07:15;25.60;;;21.13;;
15340;SDS011;7770;52.158;5.372;2024-03-08T16:10:01;26.50;;;21.07;;
15340;SDS011;7770;52.158;5.372;2024-03-08T16:12:47;25.37;;;21.33;;
15340;SDS011;7770;52.158;5.372;2024-03-08T16:15:33;22.37;;;16.77;;
15340;SDS011;7770;52.158;5.372;2024-03-08T16:18:20;28.43;;;23.13;;
15340;SDS011;7770;52.158;5.372;2024-03-08T16:21:08;26.07;;;21.93;;
15340;SDS011;7770;52.158;5.372;2024-03-08T16:23:54;25.17;;;22.13;;
15340;SDS011;7770;52.158;5.372;2024-03-08T16:26:40;23.73;;;20.97;;
15340;SDS011;7770;52.158;5.372;2024-03-08T16:29:26;22.97;;;17.73;;
15340;SDS011;7770;52.158;5.372;2024-03-08T16:32:12;21.00;;;16.87;;
15340;SDS011;7770;52.158;5.372;2024-03-08T16:34:58;25.73;;;21.17;;